Time;durP1;ratioP1;P1;durP2;ratioP2;P2;SDS_P1;SDS_P2;PMS_P1;PMS_P2;Temp;Humidity;BMP_temperature;BMP_pressure;BME280_temperature;BME280_humidity;BME280_pressure;Samples;Min_cycle;Max_cycle;Signal;HPM_P1;HPM_P2
2023/08/18 07:23:39;;;;;;;19.85;17.88;;;;;;;-145.79;93.87;77139.88;5314068;27;20677;-80
2023/08/18 07:26:10;;;;;;;20.92;18.83;;;;;;;-145.79;94.40;77144.13;5314924;28;20031;-80
2023/08/18 07:28:42;;;;;;;17.48;15.88;;;;;;;-145.79;94.28;77127.16;5314459;28;20078;-77
2023/08/18 07:31:13;;;;;;;19.50;17.17;;;;;;;-145.79;94.10;77131.41;5315856;28;20058;-78
2023/08/18 07:33:45;;;;;;;19.40;17.40;;;;;;;-145.79;93.66;77131.41;5290970;28;20064;-79
2023/08/18 07:36:16;;;;;;;18.88;16.92;;;;;;;-145.79;93.56;77118.69;5316014;28;20076;-83
2023/08/18 07:38:48;;;;;;;19.90;17.85;;;;;;;-145.79;93.95;77127.16;5321721;28;20096;-82
2023/08/18 07:41:19;;;;;;;18.13;16.33;;;;;;;-145.79;93.75;77116.56;5307125;28;20089;-75
2023/08/18 07:43:50;;;;;;;18.23;16.42;;;;;;;-145.79;94.05;77118.69;5310022;28;20456;-71
2023/08/18 07:46:22;;;;;;;19.58;17.58;;;;;;;-145.79;93.98;77105.97;5313513;28;20103;-72
2023/08/18 07:48:53;;;;;;;32.88;29.63;;;;;;;-145.79;93.21;77097.50;5309000;28;20036;-70
2023/08/18 07:51:24;;;;;;;20.02;18.00;;;;;;;-145.79;93.09;77089.00;5312508;28;20039;-70
2023/08/18 07:53:56;;;;;;;18.55;16.65;;;;;;;-145.79;92.91;77093.25;5314443;28;20035;-70
2023/08/18 07:56:33;;;;;;;14.35;12.95;;;;;;;-145.79;92.36;77080.53;5308885;28;20103;-69
2023/08/18 07:59:04;;;;;;;18.90;17.02;;;;;;;-145.79;91.71;77076.31;5310061;28;20028;-70
2023/08/18 08:01:36;;;;;;;16.77;15.15;;;;;;;-145.79;91.47;77078.41;5307268;28;20379;-71
2023/08/18 08:04:07;;;;;;;17.33;15.57;;;;;;;-145.79;91.61;77067.81;5307010;28;20111;-70
2023/08/18 08:06:39;;;;;;;15.73;14.23;;;;;;;-145.79;91.41;77057.22;5305837;28;20556;-70
2023/08/18 08:09:10;;;;;;;15.23;13.73;;;;;;;-145.79;90.08;77031.78;5311320;28;20022;-70
2023/08/18 08:11:42;;;;;;;16.48;14.98;;;;;;;-145.79;90.32;77050.88;5309601;28;20020;-71
2023/08/18 08:14:13;;;;;;;13.80;12.50;;;;;;;-145.79;89.61;77025.44;5309206;28;20166;-70
2023/08/18 08:16:45;;;;;;;13.98;12.57;;;;;;;-145.79;88.84;77012.72;5312519;28;20399;-71
2023/08/18 08:19:17;;;;;;;12.43;11.23;;;;;;;-145.79;87.55;76993.63;5312111;28;20020;-71
2023/08/18 08:21:48;;;;;;;12.35;11.15;;;;;;;-145.79;86.78;76978.81;5311975;28;20039;-70
2023/08/18 08:24:19;;;;;;;17.20;15.40;;;;;;;-145.79;87.07;76987.28;5308883;28;20038;-70
2023/08/18 08:26:51;;;;;;;13.35;11.98;;;;;;;-145.79;87.23;76987.28;5307462;28;20028;-70
2023/08/18 08:29:22;;;;;;;18.50;16.67;;;;;;;-145.79;88.49;77004.25;5308216;28;20039;-70
2023/08/18 08:31:53;;;;;;;17.60;16.00;;;;;;;-145.79;88.41;77004.25;5298700;28;20467;-70
2023/08/18 08:34:26;;;;;;;14.10;12.75;;;;;;;-145.79;87.36;76978.81;5297651;28;20403;-72
2023/08/18 08:36:57;;;;;;;14.05;12.75;;;;;;;-145.79;86.40;76972.44;5293777;28;20032;-71
2023/08/18 08:39:29;;;;;;;15.30;13.90;;;;;;;-145.79;87.28;76997.88;5293523;28;20104;-72
2023/08/18 08:42:00;;;;;;;14.25;12.95;;;;;;;-145.79;86.35;76976.69;5292601;28;20056;-73
2023/08/18 08:44:31;;;;;;;14.13;12.93;;;;;;;-145.79;86.35;76978.81;5294328;28;20031;-71
2023/08/18 08:47:03;;;;;;;15.65;14.23;;;;;;;-145.79;87.12;77002.13;5301271;28;20074;-72
2023/08/18 08:49:35;;;;;;;16.10;14.50;;;;;;;-145.79;87.50;77021.19;5293258;28;20042;-71
2023/08/18 08:52:09;;;;;;;14.13;12.70;;;;;;;-145.79;87.34;77002.13;5296418;28;20470;-71
2023/08/18 08:54:52;;;;;;;16.90;15.20;;;;;;;-145.79;88.29;77008.47;5290571;28;20024;-70
2023/08/18 08:57:25;;;;;;;14.50;13.10;;;;;;;-145.79;87.93;76997.88;5292388;28;20028;-71
2023/08/18 08:59:56;;;;;;;14.00;12.57;;;;;;;-145.79;86.71;76987.28;5298147;28;20103;-70
2023/08/18 09:02:28;;;;;;;15.35;14.00;;;;;;;-145.79;87.14;76995.75;5297274;28;20115;-71
2023/08/18 09:05:00;;;;;;;33.65;30.40;;;;;;;-145.79;87.34;76995.75;5296913;28;20453;-71
2023/08/18 09:07:31;;;;;;;15.65;14.15;;;;;;;-145.79;86.66;76978.81;5292640;28;20074;-72
2023/08/18 09:10:03;;;;;;;16.00;14.40;;;;;;;-145.79;86.72;76995.75;5293547;28;20028;-74
2023/08/18 09:12:36;;;;;;;15.52;13.70;;;;;;;-145.79;87.18;76991.53;5289281;28;20494;-74
2023/08/18 09:15:09;;;;;;;16.40;14.90;;;;;;;-145.79;87.12;76985.16;5286091;28;20025;-73
2023/08/18 09:17:43;;;;;;;16.70;15.10;;;;;;;-145.79;86.73;76985.16;5285033;28;20430;-74
2023/08/18 09:20:16;;;;;;;16.50;14.90;;;;;;;-145.79;87.18;76983.03;5293612;28;20395;-74
2023/08/18 09:22:53;;;;;;;17.73;15.93;;;;;;;-145.79;87.19;76976.69;5295699;28;20302;-74
2023/08/18 09:25:25;;;;;;;17.02;15.43;;;;;;;-145.79;87.20;76970.31;5295873;28;20472;-71
2023/08/18 09:27:56;;;;;;;19.48;17.55;;;;;;;-145.79;87.83;76978.81;5290351;28;20025;-70
2023/08/18 09:30:28;;;;;;;18.77;16.25;;;;;;;-145.79;87.16;76957.59;5297306;28;20085;-70
2023/08/18 09:33:03;;;;;;;16.88;14.57;;;;;;;-145.79;85.93;76938.53;5286703;28;20021;-71
2023/08/18 09:35:35;;;;;;;17.17;15.48;;;;;;;-145.79;85.73;76936.41;5300459;28;20070;-71
2023/08/18 09:38:11;;;;;;;15.40;14.00;;;;;;;-145.79;84.42;76913.09;5285327;28;20047;-70
2023/08/18 09:40:43;;;;;;;15.80;14.32;;;;;;;-145.79;84.40;76906.75;5301438;28;20028;-71
2023/08/18 09:43:14;;;;;;;15.80;14.38;;;;;;;-145.79;84.02;76896.16;5291529;28;20024;-70
2023/08/18 09:45:48;;;;;;;17.50;15.73;;;;;;;-145.79;85.11;76919.47;5294806;28;20055;-71
2023/08/18 09:48:22;;;;;;;15.27;13.75;;;;;;;-145.79;84.23;76906.75;5295499;28;20471;-73
2023/08/18 09:50:57;;;;;;;17.20;15.48;;;;;;;-145.79;84.96;76906.75;5286468;28;20027;-71
2023/08/18 09:53:32;;;;;;;22.52;18.38;;;;;;;-145.79;85.80;76919.47;5288290;28;20078;-74
2023/08/18 09:56:11;;;;;;;18.42;16.70;;;;;;;-145.79;86.33;76910.97;5294639;28;20032;-72
2023/08/18 09:58:57;;;;;;;18.88;17.08;;;;;;;-145.79;86.75;76923.69;5296381;28;20027;-71
2023/08/18 10:01:30;;;;;;;19.88;17.98;;;;;;;-145.79;86.80;76919.47;5284788;28;20419;-71
2023/08/18 10:04:02;;;;;;;19.13;17.38;;;;;;;-145.79;86.34;76908.88;5289696;28;20021;-70
2023/08/18 10:06:36;;;;;;;21.85;19.70;;;;;;;-145.79;86.49;76915.22;5293619;28;20438;-72
2023/08/18 10:09:09;;;;;;;19.55;17.55;;;;;;;-145.79;86.77;76915.22;5290896;28;20032;-70
2023/08/18 10:11:41;;;;;;;18.33;16.63;;;;;;;-145.79;85.70;76896.16;5285896;28;20020;-70
2023/08/18 10:14:13;;;;;;;21.75;19.67;;;;;;;-145.79;86.35;76896.16;5289500;28;20066;-69
2023/08/18 10:16:46;;;;;;;20.00;18.00;;;;;;;-145.79;85.08;76877.06;5286613;28;20388;-70
2023/08/18 10:19:49;;;;;;;21.33;19.35;;;;;;;-145.79;86.63;76877.06;5291720;28;20023;-69
2023/08/18 10:22:29;;;;;;;21.83;19.63;;;;;;;-145.79;86.45;76889.78;5283708;28;20063;-70
2023/08/18 10:25:00;;;;;;;20.83;18.83;;;;;;;-145.79;85.05;76870.72;5285735;28;20016;-70
2023/08/18 10:27:35;;;;;;;28.75;23.92;;;;;;;-145.79;85.41;76883.44;5293452;28;20021;-69
2023/08/18 10:30:07;;;;;;;27.67;25.08;;;;;;;-145.79;85.09;76864.34;5295705;28;20537;-71
2023/08/18 10:32:38;;;;;;;21.50;19.55;;;;;;;-145.79;83.88;76843.16;5293296;28;20089;-70
2023/08/18 10:35:22;;;;;;;22.05;19.60;;;;;;;-145.79;84.78;76832.56;5291729;28;20048;-70
2023/08/18 10:38:00;;;;;;;20.23;18.33;;;;;;;-145.79;84.26;76841.03;5294213;28;20028;-70
2023/08/18 10:40:38;;;;;;;24.40;22.20;;;;;;;-145.79;85.30;76843.16;5282367;28;20024;-72
2023/08/18 10:43:14;;;;;;;23.05;20.95;;;;;;;-145.79;84.84;76830.44;5283013;28;20025;-70
2023/08/18 10:45:50;;;;;;;23.40;21.40;;;;;;;-145.79;85.13;76824.09;5282800;28;20033;-71
2023/08/18 10:48:22;;;;;;;21.58;19.63;;;;;;;-145.79;85.61;76817.72;5295181;28;20061;-71
2023/08/18 10:50:53;;;;;;;22.38;20.17;;;;;;;-145.79;85.58;76813.50;5294208;28;20475;-72
2023/08/18 10:53:24;;;;;;;21.80;19.60;;;;;;;-145.79;85.00;76800.78;5290459;28;20028;-72
2023/08/18 10:55:56;;;;;;;19.73;17.83;;;;;;;-145.79;84.33;76792.31;5291026;28;20031;-72
2023/08/18 10:58:28;;;;;;;21.77;19.55;;;;;;;-145.79;84.43;76785.94;5295222;28;20070;-72
2023/08/18 11:01:00;;;;;;;18.80;17.05;;;;;;;-145.79;83.84;76775.34;5286157;28;20035;-71
2023/08/18 11:03:32;;;;;;;19.55;17.75;;;;;;;-145.79;83.33;76771.09;5294014;28;20100;-72
2023/08/18 11:06:03;;;;;;;21.65;19.45;;;;;;;-145.79;83.83;76762.63;5295145;28;20050;-72
2023/08/18 11:08:36;;;;;;;22.52;20.25;;;;;;;-145.79;83.59;76745.69;5289408;28;20052;-71
2023/08/18 11:11:09;;;;;;;21.30;19.40;;;;;;;-145.79;82.67;76728.72;5291386;28;20063;-71
2023/08/18 11:13:40;;;;;;;23.60;21.48;;;;;;;-145.79;82.74;76724.47;5294165;28;20513;-84
2023/08/18 11:16:12;;;;;;;28.95;26.42;;;;;;;-145.79;82.21;76711.75;5295548;28;20027;-82
2023/08/18 11:18:47;;;;;;;42.05;38.38;;;;;;;-145.79;82.88;76732.97;5291390;28;20053;-84
2023/08/18 11:21:18;;;;;;;26.20;23.88;;;;;;;-145.79;82.35;76707.53;5281671;28;20040;-85
2023/08/18 11:23:49;;;;;;;24.23;21.92;;;;;;;-145.79;82.32;76699.06;5301382;28;20500;-87
2023/08/18 11:26:21;;;;;;;20.48;18.58;;;;;;;-145.79;81.90;76694.81;5294373;28;20388;-85
2023/08/18 11:28:52;;;;;;;22.90;20.48;;;;;;;-145.79;81.34;76682.09;5291305;28;20024;-84
2023/08/18 11:31:23;;;;;;;21.48;19.48;;;;;;;-145.79;80.68;76656.66;5278470;28;20024;-83
2023/08/18 11:33:56;;;;;;;23.77;21.60;;;;;;;-145.79;81.81;76669.38;5277733;28;20028;-83
2023/08/18 11:36:31;;;;;;;20.75;18.75;;;;;;;-145.79;81.71;76658.78;5295903;28;20077;-81
2023/08/18 11:39:09;;;;;;;21.33;19.42;;;;;;;-145.79;81.80;76648.19;5271880;28;20024;-82
2023/08/18 11:41:45;;;;;;;20.98;18.98;;;;;;;-145.79;80.94;76643.94;5294522;28;20451;-83
2023/08/18 11:44:20;;;;;;;20.80;18.88;;;;;;;-145.79;81.88;76641.84;5292049;28;20024;-81
2023/08/18 11:46:51;;;;;;;23.77;21.58;;;;;;;-145.79;81.97;76631.22;5291369;28;20039;-81
2023/08/18 11:49:22;;;;;;;23.05;20.75;;;;;;;-145.79;80.95;76624.88;5296736;28;20025;-80
2023/08/18 11:51:55;;;;;;;30.10;27.50;;;;;;;-145.79;80.85;76633.34;5291670;28;20028;-81
2023/08/18 11:54:33;;;;;;;24.95;22.52;;;;;;;-145.79;81.44;76629.13;5287902;28;20111;-83
2023/08/18 11:57:06;;;;;;;23.85;21.75;;;;;;;-145.79;81.11;76599.44;5290690;28;20073;-75
2023/08/18 11:59:42;;;;;;;23.63;21.42;;;;;;;-145.79;80.86;76582.50;5294924;28;20098;-80
2023/08/18 12:02:20;;;;;;;26.05;23.58;;;;;;;-145.79;80.39;76595.22;5291966;28;20483;-80
2023/08/18 12:04:52;;;;;;;28.85;26.10;;;;;;;-145.79;80.21;76578.25;5287168;28;20124;-82
2023/08/18 12:07:24;;;;;;;26.65;24.08;;;;;;;-145.79;79.27;76567.66;5295874;28;20043;-80
2023/08/18 12:09:55;;;;;;;26.83;24.27;;;;;;;-145.79;79.22;76565.53;5297238;28;20399;-82
2023/08/18 12:12:27;;;;;;;27.73;24.77;;;;;;;-145.79;79.33;76542.22;5296133;28;20041;-81
2023/08/18 12:14:58;;;;;;;28.48;25.55;;;;;;;-145.79;79.64;76538.00;5295290;28;20352;-80
2023/08/18 12:17:30;;;;;;;25.55;23.33;;;;;;;-145.79;79.70;76529.50;5296984;28;20028;-80
2023/08/18 12:20:06;;;;;;;25.13;22.55;;;;;;;-145.79;79.18;76510.44;5283327;28;20059;-73
2023/08/18 12:22:37;;;;;;;27.33;24.10;;;;;;;-145.79;78.47;76495.59;5290372;28;20063;-73
2023/08/18 12:25:09;;;;;;;25.02;22.55;;;;;;;-145.79;77.81;76470.19;5293443;28;20021;-72
2023/08/18 12:27:43;;;;;;;26.02;23.50;;;;;;;-145.79;78.07;76472.28;5297624;28;20068;-76
2023/08/18 12:30:15;;;;;;;27.73;24.92;;;;;;;-145.79;77.99;76474.41;5298799;28;20382;-74
2023/08/18 12:32:49;;;;;;;27.58;24.88;;;;;;;-145.79;78.30;76472.28;5294638;28;20093;-72
2023/08/18 12:35:20;;;;;;;25.40;23.17;;;;;;;-145.79;77.52;76465.94;5294028;28;20376;-74
2023/08/18 12:37:52;;;;;;;36.97;33.50;;;;;;;-145.79;77.66;76448.97;5274487;28;20090;-75
2023/08/18 12:40:24;;;;;;;28.02;25.17;;;;;;;-145.79;77.13;76432.03;5288858;28;20024;-75
2023/08/18 12:42:56;;;;;;;26.17;23.60;;;;;;;-145.79;77.20;76415.06;5291975;28;20435;-75
2023/08/18 12:45:27;;;;;;;26.38;24.00;;;;;;;-145.79;77.08;76376.94;5283285;28;20182;-74
2023/08/18 12:47:58;;;;;;;25.35;23.13;;;;;;;-145.79;76.46;76355.75;5299521;28;20025;-74
2023/08/18 12:50:29;;;;;;;27.92;25.30;;;;;;;-145.79;75.95;76355.75;5282371;28;20040;-73
2023/08/18 12:53:01;;;;;;;25.05;22.85;;;;;;;-145.79;75.27;76336.66;5271263;28;20028;-74
2023/08/18 12:55:32;;;;;;;28.80;26.02;;;;;;;-145.79;74.34;76319.72;5277331;28;20035;-77
2023/08/18 12:58:04;;;;;;;29.63;26.70;;;;;;;-145.79;74.01;76317.59;5299006;28;20027;-72
2023/08/18 13:00:36;;;;;;;30.25;27.30;;;;;;;-145.79;74.43;76323.97;5293178;28;20486;-74
2023/08/18 13:03:08;;;;;;;35.60;32.20;;;;;;;-145.79;74.42;76313.34;5294310;28;20028;-74
2023/08/18 13:05:39;;;;;;;45.00;40.83;;;;;;;-145.79;73.96;76287.94;5292528;28;20033;-78
2023/08/18 13:08:10;;;;;;;31.77;28.70;;;;;;;-145.79;73.77;76279.47;5293512;28;20451;-76
2023/08/18 13:10:42;;;;;;;29.92;27.13;;;;;;;-145.79;73.44;76270.97;5293440;28;20403;-76
2023/08/18 13:13:13;;;;;;;32.58;29.52;;;;;;;-145.79;73.13;76270.97;5292105;28;20073;-76
2023/08/18 13:15:44;;;;;;;33.08;29.77;;;;;;;-145.79;73.24;76266.75;5291499;28;20491;-75
2023/08/18 13:18:16;;;;;;;29.52;26.48;;;;;;;-145.79;72.55;76258.25;5292910;28;20032;-74
2023/08/18 13:20:47;;;;;;;32.38;29.17;;;;;;;-145.79;73.16;76241.31;5295237;28;20119;-75
2023/08/18 13:23:18;;;;;;;31.55;28.60;;;;;;;-145.79;72.78;76220.13;5294987;28;20124;-76
2023/08/18 13:25:50;;;;;;;33.22;30.02;;;;;;;-145.79;72.05;76194.69;5291844;28;20156;-75
2023/08/18 13:28:21;;;;;;;32.33;29.27;;;;;;;-145.79;71.59;76196.81;5291592;28;20028;-76
2023/08/18 13:30:53;;;;;;;34.85;31.35;;;;;;;-145.79;71.20;76194.69;5287131;28;20124;-77
2023/08/18 13:33:24;;;;;;;34.28;30.92;;;;;;;-145.79;71.21;76179.88;5291930;28;20037;-78
2023/08/18 13:35:55;;;;;;;32.30;29.10;;;;;;;-145.79;71.49;76148.06;5294748;28;20032;-76
2023/08/18 13:38:27;;;;;;;35.40;31.95;;;;;;;-145.79;70.12;76148.06;5295853;28;20024;-74
2023/08/18 13:40:58;;;;;;;35.97;32.40;;;;;;;-145.79;70.17;76150.19;5291654;28;20119;-75
2023/08/18 13:43:30;;;;;;;35.63;31.95;;;;;;;-145.79;69.76;76124.78;5290915;28;20068;-70
2023/08/18 13:46:01;;;;;;;35.65;32.13;;;;;;;-145.79;69.61;76114.19;5290983;28;20028;-70
2023/08/18 13:48:32;;;;;;;37.08;33.63;;;;;;;-145.79;69.15;76105.69;5282539;28;20089;-70
2023/08/18 13:51:03;;;;;;;36.65;33.05;;;;;;;-145.79;68.88;76092.97;5294499;28;20467;-69
2023/08/18 13:53:35;;;;;;;34.75;31.27;;;;;;;-145.79;69.31;76088.75;5286993;28;20033;-70
2023/08/18 13:56:07;;;;;;;37.45;33.88;;;;;;;-145.79;69.60;76065.44;5282985;28;20434;-71
2023/08/18 13:58:38;;;;;;;34.78;31.35;;;;;;;-145.79;68.08;76042.13;5284538;28;20499;-70
2023/08/18 14:01:09;;;;;;;38.05;34.53;;;;;;;-145.79;68.39;76063.31;5272782;28;20424;-73
2023/08/18 14:03:41;;;;;;;38.67;34.78;;;;;;;-145.79;68.50;76042.13;5291861;28;20085;-72
2023/08/18 14:06:12;;;;;;;35.92;32.33;;;;;;;-145.79;67.67;76020.94;5294688;28;20431;-74
2023/08/18 14:08:44;;;;;;;37.78;34.20;;;;;;;-145.79;67.89;76037.88;5295898;28;20032;-73
2023/08/18 14:11:15;;;;;;;38.00;34.33;;;;;;;-145.79;67.88;76048.47;5292907;28;20490;-73
2023/08/18 14:13:48;;;;;;;40.70;36.78;;;;;;;-145.79;68.25;76033.66;5291946;28;20391;-73
2023/08/18 14:16:19;;;;;;;40.15;36.05;;;;;;;-145.79;68.55;76046.38;5294158;28;20028;-74
2023/08/18 14:18:51;;;;;;;36.63;32.95;;;;;;;-145.79;68.88;76040.00;5295448;28;20027;-74
2023/08/18 14:21:22;;;;;;;37.22;33.55;;;;;;;-145.79;68.49;76040.00;5289221;28;20467;-74
2023/08/18 14:23:54;;;;;;;36.63;33.10;;;;;;;-145.79;68.47;76046.38;5291212;28;20038;-73
2023/08/18 14:26:25;;;;;;;38.78;34.90;;;;;;;-145.79;69.15;76052.72;5293297;28;20077;-73
2023/08/18 14:28:56;;;;;;;37.40;33.88;;;;;;;-145.79;69.39;76037.88;5292219;28;20023;-73
2023/08/18 14:31:28;;;;;;;37.55;33.80;;;;;;;-145.79;68.97;76052.72;5287407;28;20035;-72
2023/08/18 14:33:59;;;;;;;41.53;37.33;;;;;;;-145.79;69.74;76065.44;5290993;28;20016;-74
2023/08/18 14:36:30;;;;;;;39.03;35.30;;;;;;;-145.79;69.97;76061.19;5292471;28;20056;-75
2023/08/18 14:39:03;;;;;;;36.83;33.28;;;;;;;-145.79;69.74;76044.25;5283014;28;20023;-74
2023/08/18 14:41:34;;;;;;;38.38;34.55;;;;;;;-145.79;70.18;76033.66;5291893;28;20028;-74
2023/08/18 14:44:06;;;;;;;36.85;33.25;;;;;;;-145.79;69.52;76048.47;5294816;28;20555;-73
2023/08/18 14:46:37;;;;;;;40.80;36.83;;;;;;;-145.79;70.28;76029.41;5278427;28;20021;-74
2023/08/18 14:49:09;;;;;;;41.65;37.65;;;;;;;-145.79;70.20;76016.69;5297656;28;20471;-74
2023/08/18 14:51:40;;;;;;;40.13;36.15;;;;;;;-145.79;70.17;76037.88;5294711;28;20136;-73
2023/08/18 14:54:11;;;;;;;37.78;33.75;;;;;;;-145.79;70.14;76037.88;5277254;28;20028;-75
2023/08/18 14:56:43;;;;;;;40.40;36.38;;;;;;;-145.79;70.36;76040.00;5289725;28;20155;-73
2023/08/18 14:59:14;;;;;;;38.92;34.90;;;;;;;-145.79;70.95;76042.13;5279695;28;20037;-75
2023/08/18 15:01:46;;;;;;;35.88;32.38;;;;;;;-145.79;70.52;76046.38;5283438;28;20024;-74
2023/08/18 15:04:17;;;;;;;38.05;34.05;;;;;;;-145.79;71.26;76052.72;5291681;28;20111;-73
2023/08/18 15:06:50;;;;;;;35.85;32.35;;;;;;;-145.79;71.38;76040.00;5291544;28;20056;-74
2023/08/18 15:09:21;;;;;;;37.17;33.38;;;;;;;-145.79;71.62;76033.66;5293518;28;20141;-72
2023/08/18 15:11:53;;;;;;;37.92;33.92;;;;;;;-145.79;71.42;76027.28;5292163;28;20372;-72
2023/08/18 15:14:24;;;;;;;37.55;33.40;;;;;;;-145.79;70.87;76027.28;5291269;28;20012;-72
2023/08/18 15:16:56;;;;;;;39.10;35.10;;;;;;;-145.79;71.79;76027.28;5290104;28;20026;-74
2023/08/18 15:19:27;;;;;;;36.97;33.47;;;;;;;-145.79;71.80;76014.59;5297935;28;20391;-74
2023/08/18 15:21:58;;;;;;;38.72;34.70;;;;;;;-145.79;71.53;76012.47;5289525;28;20102;-74
2023/08/18 15:24:30;;;;;;;37.25;33.00;;;;;;;-145.79;71.32;76001.88;5290129;28;20066;-74
2023/08/18 15:27:02;;;;;;;37.00;33.25;;;;;;;-145.79;71.45;75987.03;5294110;28;20024;-74
2023/08/18 15:29:33;;;;;;;38.60;34.58;;;;;;;-145.79;71.43;76006.09;5287178;28;20027;-73
2023/08/18 15:32:05;;;;;;;40.47;36.17;;;;;;;-145.79;71.65;75987.03;5294991;28;20395;-78
2023/08/18 15:34:36;;;;;;;48.85;33.95;;;;;;;-145.79;71.23;75944.66;5291932;28;20512;-74
2023/08/18 15:37:08;;;;;;;36.85;32.97;;;;;;;-145.79;71.09;75955.25;5290494;28;20032;-72
2023/08/18 15:39:39;;;;;;;35.42;31.55;;;;;;;-145.79;70.90;75948.91;5291278;28;20059;-69
2023/08/18 15:42:10;;;;;;;37.45;33.75;;;;;;;-145.79;70.12;75925.59;5293770;28;20028;-74
2023/08/18 15:44:42;;;;;;;35.13;31.63;;;;;;;-145.79;69.43;75940.41;5293822;28;20491;-73
2023/08/18 15:47:13;;;;;;;35.83;32.17;;;;;;;-145.79;69.82;75948.91;5287880;28;20114;-75
2023/08/18 15:49:45;;;;;;;36.95;33.00;;;;;;;-145.79;69.68;75946.78;5294008;28;20123;-76
2023/08/18 15:52:18;;;;;;;36.65;33.05;;;;;;;-145.79;69.73;75953.13;5294999;28;20028;-82
2023/08/18 15:54:49;;;;;;;34.72;31.35;;;;;;;-145.79;69.81;75925.59;5295349;28;20500;-71
2023/08/18 15:57:21;;;;;;;36.85;33.35;;;;;;;-145.79;70.09;75931.94;5297911;28;20035;-75
2023/08/18 15:59:52;;;;;;;34.58;31.05;;;;;;;-145.79;70.22;75940.41;5294864;28;20477;-72
2023/08/18 16:02:23;;;;;;;36.05;32.42;;;;;;;-145.79;70.17;75934.06;5294254;28;20495;-80
2023/08/18 16:04:55;;;;;;;34.03;30.73;;;;;;;-145.79;70.12;75938.31;5292009;28;20068;-80
2023/08/18 16:07:26;;;;;;;34.47;30.95;;;;;;;-145.79;69.87;75931.94;5298443;28;20541;-82
2023/08/18 16:09:57;;;;;;;39.10;34.95;;;;;;;-145.79;71.18;75953.13;5298075;28;20028;-83
2023/08/18 16:12:29;;;;;;;36.03;32.25;;;;;;;-145.79;71.35;75957.38;5286220;28;20471;-77
2023/08/18 16:15:00;;;;;;;33.50;30.23;;;;;;;-145.79;70.99;75955.25;5293094;28;20107;-79
2023/08/18 16:17:31;;;;;;;33.83;30.52;;;;;;;-145.79;71.20;75957.38;5298099;28;20020;-79
2023/08/18 16:20:03;;;;;;;35.30;31.73;;;;;;;-145.79;71.02;75955.25;5297557;28;20099;-80
2023/08/18 16:22:37;;;;;;;33.13;29.83;;;;;;;-145.79;70.93;75948.91;5294900;28;20044;-80
2023/08/18 16:25:08;;;;;;;32.28;28.83;;;;;;;-145.79;71.87;75940.41;5293901;28;20163;-79
2023/08/18 16:27:40;;;;;;;31.63;28.55;;;;;;;-145.79;71.48;75946.78;5298122;28;20099;-80
2023/08/18 16:30:11;;;;;;;34.30;31.00;;;;;;;-145.79;71.64;75936.19;5294651;28;20031;-81
2023/08/18 16:32:44;;;;;;;32.53;29.52;;;;;;;-145.79;71.77;75927.72;5300526;28;20379;-80
2023/08/18 16:35:16;;;;;;;34.10;30.70;;;;;;;-145.79;71.80;75931.94;5298965;28;20106;-79
2023/08/18 16:37:47;;;;;;;32.05;28.85;;;;;;;-145.79;71.91;75919.22;5288728;28;20170;-80
2023/08/18 16:40:18;;;;;;;43.35;34.25;;;;;;;-145.79;71.30;75929.81;5293996;28;20552;-80
2023/08/18 16:42:50;;;;;;;33.15;29.83;;;;;;;-145.79;71.73;75934.06;5296990;28;20121;-79
2023/08/18 16:45:22;;;;;;;34.50;31.15;;;;;;;-145.79;72.72;75931.94;5297138;28;20032;-80
2023/08/18 16:47:53;;;;;;;30.52;27.50;;;;;;;-145.79;72.76;75921.34;5295578;28;20020;-80
2023/08/18 16:50:24;;;;;;;31.35;28.27;;;;;;;-145.79;72.79;75915.00;5294117;28;20043;-80
2023/08/18 16:52:56;;;;;;;31.85;28.80;;;;;;;-145.79;72.53;75923.47;5294439;28;20373;-76
